Aviation Digital Data Service (ADDS)

Output produced by TAFs form (0030 UTC 24 May 2017)
found at http://aviationweather.gov/adds/tafs/
 
KMAF 232320Z 2400/2424 36011KT P6SM SKC 
     FM241500 21011KT P6SM SKC